Time;durP1;ratioP1;P1;durP2;ratioP2;P2;SDS_P1;SDS_P2;PMS_P1;PMS_P2;Temp;Humidity;BMP_temperature;BMP_pressure;BME280_temperature;BME280_humidity;BME280_pressure;Samples;Min_cycle;Max_cycle;Signal;HPM_P1;HPM_P2
2022/12/17 13:06:53;;;;;;;;;;;;;;;7.14;79.38;101766.44;7356004;19;19926;-64
2022/12/17 13:09:25;;;;;;;;;;;;;;;7.17;78.70;101760.13;7357568;19;20329;-64
2022/12/17 13:12:03;;;;;;;;;;;;;;;7.21;79.19;101764.22;7359137;19;19927;-65
2022/12/17 13:14:35;;;;;;;;;;;;;;;7.21;79.39;101769.47;7359629;19;19926;-64
2022/12/17 13:17:14;;;;;;;;;;;;;;;7.21;78.87;101769.47;7359805;19;19922;-64
2022/12/17 13:19:41;;;;;;;;;;;;;;;7.20;79.24;101771.22;7358178;19;20530;-64
2022/12/17 13:22:28;;;;;;;;;;;;;;;7.18;79.99;101773.09;7356812;19;19939;-65
2022/12/17 13:25:15;;;;;;;;;;;;;;;7.17;80.13;101767.97;7359301;19;19954;-65
2022/12/17 13:27:51;;;;;;;;;;;;;;;7.15;79.38;101775.13;7358218;19;19922;-65
2022/12/17 13:30:20;;;;;;;;;;;;;;;7.16;80.02;101785.44;7359559;19;19934;-64
2022/12/17 13:32:47;;;;;;;;;;;;;;;7.15;80.32;101775.13;7356490;19;19953;-64
2022/12/17 13:35:29;;;;;;;;;;;;;;;7.14;80.62;101784.75;7357884;19;20407;-64
2022/12/17 13:38:04;;;;;;;;;;;;;;;7.11;79.61;101786.75;7358492;19;20356;-63
2022/12/17 13:40:37;;;;;;;;;;;;;;;7.08;80.05;101784.31;7357803;19;20353;-65
2022/12/17 13:43:04;;;;;;;;;;;;;;;7.06;80.10;101781.81;7359395;19;19930;-64
2022/12/17 13:45:35;;;;;;;;;;;;;;;7.07;80.18;101786.09;7358556;19;19922;-65
2022/12/17 13:48:02;;;;;;;;;;;;;;;7.06;80.04;101786.22;7357689;19;19918;-65
2022/12/17 13:50:29;;;;;;;;;;;;;;;7.03;79.58;101789.88;7357859;19;19971;-64
2022/12/17 13:53:08;;;;;;;;;;;;;;;7.02;79.60;101790.81;7357679;19;20321;-64
2022/12/17 13:55:36;;;;;;;;;;;;;;;7.02;79.79;101784.75;7358580;19;20002;-64
2022/12/17 13:58:03;;;;;;;;;;;;;;;7.01;79.72;101778.66;7356523;19;20190;-65
2022/12/17 14:00:31;;;;;;;;;;;;;;;7.01;80.22;101777.88;7356265;19;19962;-65
2022/12/17 14:03:07;;;;;;;;;;;;;;;7.00;80.74;101784.03;7358940;19;20770;-64
2022/12/17 14:05:37;;;;;;;;;;;;;;;6.99;80.77;101791.03;7357952;19;20342;-65
2022/12/17 14:08:04;;;;;;;;;;;;;;;6.96;80.17;101793.03;7353574;19;19926;-65
2022/12/17 14:10:31;;;;;;;;;;;;;;;6.94;80.14;101787.06;7358693;19;19927;-64
2022/12/17 14:13:02;;;;;;;;;;;;;;;6.92;80.16;101792.38;7355805;19;19926;-66
2022/12/17 14:15:30;;;;;;;;;;;;;;;6.92;80.29;101795.00;7358942;19;19927;-64
2022/12/17 14:17:58;;;;;;;;;;;;;;;6.91;80.58;101793.31;7358357;19;19955;-65
2022/12/17 14:20:28;;;;;;;;;;;;;;;6.86;80.07;101792.81;7354929;19;19986;-64
2022/12/17 14:22:58;;;;;;;;;;;;;;;6.82;80.11;101784.34;7355321;19;19935;-64
2022/12/17 14:25:28;;;;;;;;;;;;;;;6.80;80.44;101788.84;7356072;19;19923;-65
2022/12/17 14:27:59;;;;;;;;;;;;;;;6.81;80.62;101800.97;7357221;19;19922;-64
2022/12/17 14:30:36;;;;;;;;;;;;;;;6.81;80.68;101797.50;7357857;19;20023;-65
2022/12/17 14:33:28;;;;;;;;;;;;;;;6.80;80.21;101811.56;7354040;19;20364;-64
2022/12/17 14:35:56;;;;;;;;;;;;;;;6.79;80.44;101815.09;7354759;19;20075;-65
2022/12/17 14:38:23;;;;;;;;;;;;;;;6.80;80.76;101814.16;7356181;19;19919;-66
2022/12/17 14:43:59;;;;;;;;;;;;;;;6.79;80.80;101823.78;7357844;19;19923;-65
2022/12/17 14:46:27;;;;;;;;;;;;;;;6.82;81.21;101825.34;7357904;19;19922;-65
2022/12/17 14:49:01;;;;;;;;;;;;;;;6.81;80.46;101831.50;7356221;19;20588;-64
2022/12/17 14:51:30;;;;;;;;;;;;;;;6.79;80.72;101823.78;7353378;19;19919;-66
2022/12/17 14:54:12;;;;;;;;;;;;;;;6.79;80.50;101820.34;7356531;19;20608;-65
2022/12/17 14:56:39;;;;;;;;;;;;;;;6.76;80.59;101813.53;7355369;19;19932;-64
2022/12/17 14:59:23;;;;;;;;;;;;;;;6.73;80.52;101818.13;7356383;19;19922;-64
2022/12/17 15:01:50;;;;;;;;;;;;;;;6.70;80.16;101820.97;7355779;19;19918;-65
2022/12/17 15:04:22;;;;;;;;;;;;;;;6.67;79.99;101824.59;7356916;19;20014;-64
2022/12/17 15:06:49;;;;;;;;;;;;;;;6.68;80.52;101818.44;7352704;19;19930;-65
2022/12/17 15:09:16;;;;;;;;;;;;;;;6.68;80.37;101810.59;7356379;19;20010;-65
2022/12/17 15:11:42;;;;;;;;;;;;;;;6.67;80.48;101822.00;7355387;19;19934;-64
2022/12/17 15:14:09;;;;;;;;;;;;;;;6.69;80.95;101827.13;7357312;19;20360;-64
2022/12/17 15:16:36;;;;;;;;;;;;;;;6.66;80.84;101828.16;7355446;19;19926;-64
2022/12/17 15:19:03;;;;;;;;;;;;;;;6.66;80.52;101837.78;7355263;19;19927;-65
2022/12/17 15:21:30;;;;;;;;;;;;;;;6.65;81.39;101839.56;7352532;19;20270;-66
2022/12/17 15:23:57;;;;;;;;;;;;;;;6.64;81.98;101834.44;7355128;19;19926;-65
2022/12/17 15:26:24;;;;;;;;;;;;;;;6.63;82.16;101840.59;7355750;19;19957;-65
2022/12/17 15:28:50;;;;;;;;;;;;;;;6.61;82.13;101835.47;7355386;19;20407;-64
2022/12/17 15:31:17;;;;;;;;;;;;;;;6.59;82.04;101841.75;7354174;19;20583;-65
2022/12/17 15:33:50;;;;;;;;;;;;;;;6.56;82.02;101831.47;7354508;19;20379;-66
2022/12/17 15:36:17;;;;;;;;;;;;;;;6.53;82.25;101829.09;7350316;19;19927;-66
2022/12/17 15:38:45;;;;;;;;;;;;;;;6.51;82.12;101830.94;7355546;19;19930;-64
2022/12/17 15:43:57;;;;;;;;;;;;;;;6.46;81.90;101815.56;7354530;19;20007;-64
2022/12/17 15:46:23;;;;;;;;;;;;;;;6.45;81.87;101819.13;7355898;19;19918;-64
2022/12/17 15:48:50;;;;;;;;;;;;;;;6.42;82.39;101814.09;7353261;19;19926;-64
2022/12/17 15:51:19;;;;;;;;;;;;;;;6.39;82.70;101812.56;7352952;19;19934;-65
2022/12/17 15:53:47;;;;;;;;;;;;;;;6.38;83.04;101830.94;7355688;19;19922;-65
2022/12/17 15:56:17;;;;;;;;;;;;;;;6.34;82.95;101830.31;7355784;19;19977;-64
2022/12/17 15:58:44;;;;;;;;;;;;;;;6.31;83.24;101822.66;7355290;19;20708;-65
2022/12/17 16:01:11;;;;;;;;;;;;;;;6.32;83.68;101818.28;7353742;19;19931;-64
2022/12/17 16:03:38;;;;;;;;;;;;;;;6.31;83.61;101801.75;7354521;19;19923;-65
2022/12/17 16:06:06;;;;;;;;;;;;;;;6.30;84.10;101799.22;7352920;19;20248;-66
2022/12/17 16:08:33;;;;;;;;;;;;;;;6.28;84.01;101808.97;7355723;19;19930;-64
2022/12/17 16:11:04;;;;;;;;;;;;;;;6.28;84.13;101814.19;7352524;19;19931;-66
2022/12/17 16:13:31;;;;;;;;;;;;;;;6.27;84.09;101823.81;7355040;19;19935;-65
2022/12/17 16:15:59;;;;;;;;;;;;;;;6.27;84.29;101818.56;7356593;19;19919;-65
2022/12/17 16:18:29;;;;;;;;;;;;;;;6.23;84.32;101817.09;7354908;19;20010;-65
2022/12/17 16:21:01;;;;;;;;;;;;;;;6.23;83.99;101830.16;7349889;19;19937;-65
2022/12/17 16:23:28;;;;;;;;;;;;;;;6.19;83.80;101830.47;7354058;19;20321;-67
2022/12/17 16:25:56;;;;;;;;;;;;;;;6.14;83.68;101836.00;7351644;19;19956;-64
2022/12/17 16:28:24;;;;;;;;;;;;;;;6.13;83.70;101836.09;7354453;19;19919;-65
2022/12/17 16:30:58;;;;;;;;;;;;;;;6.12;83.82;101829.19;7353995;19;19915;-66
2022/12/17 16:33:25;;;;;;;;;;;;;;;6.11;83.82;101828.34;7352838;19;19998;-65
2022/12/17 16:36:01;;;;;;;;;;;;;;;6.10;84.06;101844.09;7349396;19;20317;-65
2022/12/17 16:38:28;;;;;;;;;;;;;;;6.07;84.11;101837.31;7352328;19;19926;-65
2022/12/17 16:40:55;;;;;;;;;;;;;;;6.05;83.94;101833.13;7352512;19;19923;-66
2022/12/17 16:43:23;;;;;;;;;;;;;;;6.05;84.27;101835.72;7352330;19;19918;-64
2022/12/17 16:45:51;;;;;;;;;;;;;;;6.04;84.13;101845.38;7351813;19;19922;-65
2022/12/17 16:48:19;;;;;;;;;;;;;;;6.04;84.16;101845.38;7355097;19;20275;-66
2022/12/17 16:50:47;;;;;;;;;;;;;;;6.04;84.61;101845.38;7349166;19;20531;-66
2022/12/17 16:53:15;;;;;;;;;;;;;;;6.01;84.94;101840.31;7354494;19;19911;-66
2022/12/17 16:55:43;;;;;;;;;;;;;;;5.99;85.01;101835.19;7351909;19;19942;-64
2022/12/17 16:58:11;;;;;;;;;;;;;;;5.97;85.26;101831.84;7359256;19;20854;-65
2022/12/17 17:00:38;;;;;;;;;;;;;;;5.97;85.12;101837.06;7357555;19;19919;-65
2022/12/17 17:03:05;;;;;;;;;;;;;;;5.97;85.02;101836.22;7361766;19;19933;-65
2022/12/17 17:05:34;;;;;;;;;;;;;;;5.99;84.78;101837.00;7359705;19;21186;-64
2022/12/17 17:08:01;;;;;;;;;;;;;;;5.98;84.55;101837.91;7358795;19;20268;-66
2022/12/17 17:10:28;;;;;;;;;;;;;;;5.99;84.38;101842.22;7359011;19;20257;-64
2022/12/17 17:12:55;;;;;;;;;;;;;;;6.00;83.91;101839.47;7359246;19;19925;-65
2022/12/17 17:15:22;;;;;;;;;;;;;;;6.00;83.76;101843.84;7357105;19;20257;-64
2022/12/17 17:17:50;;;;;;;;;;;;;;;6.00;83.26;101841.25;7358935;19;19986;-64
2022/12/17 17:20:22;;;;;;;;;;;;;;;5.97;82.79;101839.69;7356063;19;19922;-64
2022/12/17 17:22:49;;;;;;;;;;;;;;;5.95;82.48;101836.31;7359014;19;19923;-65
2022/12/17 17:25:15;;;;;;;;;;;;;;;5.93;82.66;101843.44;7358884;19;19958;-65
2022/12/17 17:27:43;;;;;;;;;;;;;;;5.91;82.33;101837.47;7360142;19;19929;-63
2022/12/17 17:30:10;;;;;;;;;;;;;;;5.90;82.07;101837.53;7361487;19;19921;-64
2022/12/17 17:32:37;;;;;;;;;;;;;;;5.89;81.96;101841.13;7358671;19;19915;-65
2022/12/17 17:35:04;;;;;;;;;;;;;;;5.87;81.97;101840.38;7360007;19;19922;-65
2022/12/17 17:37:31;;;;;;;;;;;;;;;5.84;81.43;101841.34;7357993;19;19918;-64
2022/12/17 17:39:58;;;;;;;;;;;;;;;5.80;81.38;101842.50;7356718;19;20034;-64
2022/12/17 17:42:25;;;;;;;;;;;;;;;5.77;80.67;101853.13;7361634;19;19918;-65
2022/12/17 17:44:52;;;;;;;;;;;;;;;5.75;80.30;101856.75;7360337;19;19918;-65
2022/12/17 17:47:19;;;;;;;;;;;;;;;5.72;79.94;101855.19;7358081;19;19930;-64
2022/12/17 17:49:46;;;;;;;;;;;;;;;5.69;80.03;101844.94;7357749;19;19918;-65
2022/12/17 17:52:14;;;;;;;;;;;;;;;5.68;79.83;101842.44;7358124;19;19937;-64
2022/12/17 17:54:41;;;;;;;;;;;;;;;5.69;79.31;101839.72;7358594;19;20010;-65
2022/12/17 17:57:08;;;;;;;;;;;;;;;5.69;78.57;101847.53;7359279;19;20030;-65
2022/12/17 17:59:38;;;;;;;;;;;;;;;5.68;78.83;101855.50;7356803;19;19922;-64
2022/12/17 18:02:05;;;;;;;;;;;;;;;5.66;78.78;101855.56;7358446;19;21611;-64
2022/12/17 18:04:33;;;;;;;;;;;;;;;5.65;78.60;101856.50;7357075;19;20347;-64
2022/12/17 18:06:59;;;;;;;;;;;;;;;5.65;78.19;101858.28;7355263;19;19930;-65
2022/12/17 18:09:46;;;;;;;;;;;;;;;5.65;77.58;101858.28;7356828;19;19914;-65
2022/12/17 18:14:43;;;;;;;;;;;;;;;5.59;76.64;101851.66;7358943;19;19930;-64
2022/12/17 18:17:30;;;;;;;;;;;;;;;5.58;76.50;101857.84;7358638;19;19918;-66
2022/12/17 18:19:57;;;;;;;;;;;;;;;5.56;76.10;101863.16;7355312;19;19934;-65
2022/12/17 18:22:24;;;;;;;;;;;;;;;5.56;76.11;101865.75;7357297;19;19925;-65
2022/12/17 18:24:51;;;;;;;;;;;;;;;5.56;75.42;101867.53;7358133;19;19945;-65
2022/12/17 18:27:18;;;;;;;;;;;;;;;5.55;74.75;101868.44;7357587;19;21673;-64
2022/12/17 18:29:45;;;;;;;;;;;;;;;5.53;74.29;101872.94;7358274;19;19922;-66
2022/12/17 18:32:11;;;;;;;;;;;;;;;5.53;74.22;101872.94;7355404;19;20450;-64
2022/12/17 18:34:39;;;;;;;;;;;;;;;5.52;74.47;101868.66;7357640;19;19933;-65
2022/12/17 18:37:06;;;;;;;;;;;;;;;5.50;74.54;101866.13;7350469;19;19926;-66
2022/12/17 18:39:33;;;;;;;;;;;;;;;5.49;74.71;101861.00;7354824;19;21595;-65
2022/12/17 18:44:31;;;;;;;;;;;;;;;5.44;74.31;101852.59;7358082;19;19919;-66
2022/12/17 18:46:58;;;;;;;;;;;;;;;5.40;74.13;101854.56;7353857;19;20107;-66
2022/12/17 18:49:25;;;;;;;;;;;;;;;5.38;74.33;101853.84;7356702;19;19960;-64
2022/12/17 18:51:53;;;;;;;;;;;;;;;5.35;73.84;101859.25;7352625;19;19914;-65
2022/12/17 18:54:21;;;;;;;;;;;;;;;5.34;73.46;101856.72;7354668;19;19933;-64
2022/12/17 18:56:49;;;;;;;;;;;;;;;5.33;73.61;101855.91;7356173;19;19930;-65
2022/12/17 18:59:28;;;;;;;;;;;;;;;5.34;73.96;101867.16;7354393;19;20383;-66
2022/12/17 19:01:55;;;;;;;;;;;;;;;5.31;74.21;101873.41;7352187;19;19923;-66
2022/12/17 19:04:22;;;;;;;;;;;;;;;5.28;73.99;101857.13;7355616;19;20493;-66
2022/12/17 19:06:52;;;;;;;;;;;;;;;5.26;73.89;101859.81;7353718;19;19919;-65
2022/12/17 19:09:22;;;;;;;;;;;;;;;5.24;73.36;101852.97;7356248;19;19922;-65
2022/12/17 19:11:49;;;;;;;;;;;;;;;5.22;73.42;101862.69;7355865;19;19936;-64
2022/12/17 19:14:16;;;;;;;;;;;;;;;5.20;73.47;101860.16;7356287;19;19923;-66
2022/12/17 19:16:44;;;;;;;;;;;;;;;5.19;73.68;101871.53;7354536;19;20558;-66
2022/12/17 19:19:12;;;;;;;;;;;;;;;5.15;73.48;101876.09;7351347;19;20293;-65
2022/12/17 19:21:39;;;;;;;;;;;;;;;5.12;72.75;101865.88;7349701;19;19930;-64
2022/12/17 19:24:07;;;;;;;;;;;;;;;5.11;73.57;101877.22;7351826;19;19943;-64
2022/12/17 19:26:34;;;;;;;;;;;;;;;5.12;73.95;101878.06;7355530;19;19957;-64
2022/12/17 19:29:01;;;;;;;;;;;;;;;5.11;73.38;101879.81;7355479;19;19922;-65
2022/12/17 19:31:29;;;;;;;;;;;;;;;5.09;73.44;101876.47;7354987;19;20910;-65
2022/12/17 19:33:57;;;;;;;;;;;;;;;5.10;73.58;101875.53;7353242;19;19922;-64
2022/12/17 19:36:25;;;;;;;;;;;;;;;5.08;73.63;101871.31;7349843;19;19919;-64
2022/12/17 19:38:55;;;;;;;;;;;;;;;5.07;74.00;101880.09;7352871;19;19923;-64
2022/12/17 19:41:22;;;;;;;;;;;;;;;5.08;73.94;101873.94;7351858;19;19922;-66
2022/12/17 19:43:52;;;;;;;;;;;;;;;5.07;74.22;101872.28;7351793;19;19918;-65
2022/12/17 19:46:19;;;;;;;;;;;;;;;5.05;73.43;101869.75;7354474;19;19923;-66
2022/12/17 19:48:47;;;;;;;;;;;;;;;5.02;73.60;101864.72;7354645;19;19918;-67
2022/12/17 19:51:16;;;;;;;;;;;;;;;5.00;73.30;101870.97;7350682;19;19923;-66
2022/12/17 19:53:43;;;;;;;;;;;;;;;4.95;73.27;101860.81;7354291;19;19934;-65
2022/12/17 19:59:30;;;;;;;;;;;;;;;4.88;73.31;101867.28;7354658;19;19911;-65
2022/12/17 20:01:56;;;;;;;;;;;;;;;4.86;73.60;101869.19;7351522;19;19927;-65
2022/12/17 20:04:24;;;;;;;;;;;;;;;4.84;73.96;101871.03;7354405;19;19927;-65
2022/12/17 20:06:51;;;;;;;;;;;;;;;4.85;74.89;101879.69;7349504;19;19927;-65
2022/12/17 20:09:17;;;;;;;;;;;;;;;4.83;75.13;101869.34;7351705;19;20337;-66
2022/12/17 20:11:44;;;;;;;;;;;;;;;4.82;75.25;101875.50;7354093;19;20509;-65
2022/12/17 20:14:12;;;;;;;;;;;;;;;4.83;75.13;101871.94;7351789;19;19922;-65
2022/12/17 20:16:40;;;;;;;;;;;;;;;4.82;75.03;101874.66;7352503;19;19915;-66
2022/12/17 20:19:09;;;;;;;;;;;;;;;4.81;75.47;101879.03;7353879;19;20210;-65
2022/12/17 20:21:37;;;;;;;;;;;;;;;4.77;76.20;101880.16;7348958;19;19926;-66
2022/12/17 20:24:04;;;;;;;;;;;;;;;4.77;76.50;101874.09;7354183;19;19943;-67
2022/12/17 20:26:31;;;;;;;;;;;;;;;4.78;76.67;101887.00;7351069;19;19926;-65
2022/12/17 20:28:58;;;;;;;;;;;;;;;4.77;76.92;101887.13;7352296;19;19938;-65
2022/12/17 20:31:25;;;;;;;;;;;;;;;4.77;76.82;101894.94;7352801;19;19926;-65
2022/12/17 20:33:52;;;;;;;;;;;;;;;4.77;77.46;101900.16;7358983;19;20357;-64
2022/12/17 20:36:20;;;;;;;;;;;;;;;4.74;77.06;101901.16;7358646;19;19934;-64
2022/12/17 20:38:48;;;;;;;;;;;;;;;4.73;77.07;101889.03;7358288;19;19930;-66
2022/12/17 20:41:17;;;;;;;;;;;;;;;4.69;77.85;101893.59;7360082;19;19923;-66
2022/12/17 20:43:43;;;;;;;;;;;;;;;4.67;78.00;101886.81;7358743;19;19950;-65
2022/12/17 20:46:10;;;;;;;;;;;;;;;4.66;79.34;101883.38;7359766;19;20331;-65
2022/12/17 20:48:39;;;;;;;;;;;;;;;4.65;79.50;101880.84;7361641;19;19947;-64
2022/12/17 20:51:08;;;;;;;;;;;;;;;4.63;78.78;101885.28;7357002;19;19965;-64
2022/12/17 20:53:36;;;;;;;;;;;;;;;4.59;78.93;101882.03;7360513;19;20006;-64
2022/12/17 20:56:06;;;;;;;;;;;;;;;4.58;79.03;101869.09;7360427;19;19913;-64
2022/12/17 20:58:33;;;;;;;;;;;;;;;4.57;79.43;101883.88;7359551;19;21622;-66
2022/12/17 21:01:02;;;;;;;;;;;;;;;4.57;79.54;101881.28;7359588;19;21146;-65
2022/12/17 21:03:31;;;;;;;;;;;;;;;4.58;79.65;101882.97;7356420;19;19953;-65
2022/12/17 21:06:01;;;;;;;;;;;;;;;4.57;79.33;101883.88;7355142;19;20195;-65
2022/12/17 21:08:37;;;;;;;;;;;;;;;4.56;79.29;101884.81;7357685;19;19929;-65
2022/12/17 21:11:09;;;;;;;;;;;;;;;4.58;79.90;101884.72;7357352;19;19923;-65
2022/12/17 21:13:36;;;;;;;;;;;;;;;4.56;80.20;101889.19;7358949;19;19930;-65
2022/12/17 21:16:05;;;;;;;;;;;;;;;4.55;80.42;101890.13;7359967;19;19937;-65
2022/12/17 21:18:32;;;;;;;;;;;;;;;4.51;80.21;101886.84;7359883;19;19933;-64
2022/12/17 21:21:01;;;;;;;;;;;;;;;4.50;81.10;101890.38;7352546;19;19919;-64
2022/12/17 21:23:28;;;;;;;;;;;;;;;4.49;80.91;101893.06;7358314;19;21739;-64
2022/12/17 21:25:56;;;;;;;;;;;;;;;4.46;80.93;101899.31;7356056;19;19930;-65
2022/12/17 21:28:24;;;;;;;;;;;;;;;4.45;80.95;101900.22;7357873;19;19987;-67
2022/12/17 21:30:51;;;;;;;;;;;;;;;4.43;81.51;101902.06;7359610;19;20027;-65
2022/12/17 21:33:18;;;;;;;;;;;;;;;4.39;80.57;101902.34;7357184;19;20014;-64
2022/12/17 21:35:44;;;;;;;;;;;;;;;4.38;80.23;101911.06;7357092;19;19929;-66
2022/12/17 21:38:11;;;;;;;;;;;;;;;4.35;80.45;101909.50;7356149;19;19921;-65
2022/12/17 21:40:38;;;;;;;;;;;;;;;4.33;81.20;101906.13;7357533;19;20268;-67
2022/12/17 21:43:05;;;;;;;;;;;;;;;4.30;82.14;101906.31;7358033;19;19930;-64
2022/12/17 21:45:34;;;;;;;;;;;;;;;4.28;82.08;101901.16;7358346;19;20320;-65
2022/12/17 21:48:01;;;;;;;;;;;;;;;4.26;82.23;101910.84;7358362;19;20959;-66
2022/12/17 21:50:29;;;;;;;;;;;;;;;4.24;82.74;101915.28;7357272;19;19915;-65
2022/12/17 21:52:56;;;;;;;;;;;;;;;4.24;83.42;101911.84;7354680;19;19918;-66
2022/12/17 21:55:23;;;;;;;;;;;;;;;4.23;83.81;101908.41;7355305;19;20973;-65
2022/12/17 21:57:50;;;;;;;;;;;;;;;4.21;83.25;101904.22;7354823;19;20311;-65
2022/12/17 22:00:17;;;;;;;;;;;;;;;4.19;83.12;101900.84;7356916;19;19926;-65
2022/12/17 22:02:44;;;;;;;;;;;;;;;4.18;84.35;101897.41;7355298;19;19927;-64
2022/12/17 22:05:11;;;;;;;;;;;;;;;4.19;84.43;101903.44;7356855;19;20348;-64
2022/12/17 22:07:43;;;;;;;;;;;;;;;4.15;84.69;101891.53;7355188;19;20030;-64
2022/12/17 22:10:15;;;;;;;;;;;;;;;4.12;84.49;101889.91;7355938;19;19925;-66
2022/12/17 22:15:33;;;;;;;;;;;;;;;4.10;84.45;101894.41;7359959;19;19931;-66
2022/12/17 22:18:13;;;;;;;;;;;;;;;4.09;84.65;101895.31;7357918;19;20463;-66
2022/12/17 22:20:40;;;;;;;;;;;;;;;4.06;84.48;101902.47;7356113;19;20258;-66
2022/12/17 22:23:07;;;;;;;;;;;;;;;4.02;84.55;101909.56;7355846;19;19944;-65
2022/12/17 22:25:35;;;;;;;;;;;;;;;4.00;84.87;101906.25;7356169;19;19926;-65
2022/12/17 22:28:02;;;;;;;;;;;;;;;4.02;85.61;101901.78;7353493;19;20195;-65
2022/12/17 22:33:02;;;;;;;;;;;;;;;4.03;85.60;101887.00;7352536;19;19919;-65
2022/12/17 22:35:49;;;;;;;;;;;;;;;4.01;86.05;101883.66;7350469;19;19937;-65
2022/12/17 22:38:36;;;;;;;;;;;;;;;4.01;86.70;101873.25;7357695;19;20329;-66
2022/12/17 22:44:13;;;;;;;;;;;;;;;4.00;87.27;101855.94;7357197;19;19911;-65
2022/12/17 22:47:00;;;;;;;;;;;;;;;3.99;87.65;101859.44;7357414;19;19927;-66
2022/12/17 22:49:27;;;;;;;;;;;;;;;3.98;87.78;101850.81;7356851;19;19919;-65
2022/12/17 22:51:54;;;;;;;;;;;;;;;3.95;87.37;101847.53;7351681;19;20037;-66
2022/12/17 22:54:20;;;;;;;;;;;;;;;3.94;87.74;101848.47;7354162;19;19926;-66
2022/12/17 22:56:48;;;;;;;;;;;;;;;3.92;87.45;101843.31;7357211;19;19915;-66
2022/12/17 22:59:35;;;;;;;;;;;;;;;3.91;87.00;101840.81;7354703;19;19933;-65
2022/12/17 23:02:02;;;;;;;;;;;;;;;3.90;87.22;101839.16;7355375;19;19923;-66
2022/12/17 23:04:28;;;;;;;;;;;;;;;3.87;86.81;101845.34;7356072;19;19926;-66
2022/12/17 23:06:55;;;;;;;;;;;;;;;3.85;87.31;101842.84;7350682;19;19922;-67
2022/12/17 23:09:22;;;;;;;;;;;;;;;3.84;87.44;101840.31;7353520;19;19919;-66
2022/12/17 23:11:49;;;;;;;;;;;;;;;3.83;87.73;101849.88;7354212;19;19939;-66
2022/12/17 23:14:17;;;;;;;;;;;;;;;3.83;87.54;101849.03;7354489;19;19926;-67
2022/12/17 23:16:44;;;;;;;;;;;;;;;3.82;87.68;101850.81;7353563;19;20840;-66
2022/12/17 23:19:11;;;;;;;;;;;;;;;3.82;88.08;101855.16;7354529;19;19919;-68
2022/12/17 23:21:39;;;;;;;;;;;;;;;3.84;88.22;101850.72;7352405;19;19922;-66
2022/12/17 23:24:06;;;;;;;;;;;;;;;3.84;87.96;101840.31;7353938;19;19919;-66
2022/12/17 23:26:34;;;;;;;;;;;;;;;3.83;87.89;101843.84;7354603;19;19922;-65
2022/12/17 23:29:03;;;;;;;;;;;;;;;3.79;87.75;101832.78;7354584;19;19926;-64
2022/12/17 23:31:32;;;;;;;;;;;;;;;3.78;87.86;101835.44;7353752;19;19931;-66
2022/12/17 23:33:59;;;;;;;;;;;;;;;3.77;87.57;101831.16;7354708;19;19965;-66
2022/12/17 23:36:26;;;;;;;;;;;;;;;3.77;88.13;101825.94;7350867;19;19923;-65
2022/12/17 23:39:26;;;;;;;;;;;;;;;3.77;88.28;101826.78;7355408;19;20272;-64
2022/12/17 23:41:54;;;;;;;;;;;;;;;3.80;88.80;101825.81;7352453;19;19922;-65
2022/12/17 23:44:20;;;;;;;;;;;;;;;3.79;88.93;101826.72;7353737;19;19926;-67
2022/12/17 23:46:47;;;;;;;;;;;;;;;3.77;88.92;101839.81;7353964;19;19929;-66
2022/12/17 23:49:14;;;;;;;;;;;;;;;3.77;88.46;101845.00;7357000;19;20315;-66
2022/12/17 23:51:41;;;;;;;;;;;;;;;3.77;87.98;101841.56;7349941;19;20441;-65
2022/12/17 23:54:08;;;;;;;;;;;;;;;3.74;87.75;101840.00;7354775;19;19926;-66
2022/12/17 23:56:35;;;;;;;;;;;;;;;3.73;87.84;101842.66;7352221;19;20034;-65
2022/12/17 23:59:02;;;;;;;;;;;;;;;3.72;88.04;101835.78;7354029;19;19915;-65
